LAN5884 SKPS-SVMI
Flight info
| Callsign | LAN5884 |
|---|---|
| Flight time | N/A |
| Altitude | 39000 |
| Route | TITG2A TITGU W86 GIR W17 ARSUP W42 SOA W44 ZIP W20 MAVDA W34 PUGSO A550 KIKAS UP533 PBL ALDAK1 |
| Aircraft | A319/M-X/S |
Departure
| Time | 2026-04-24 06:53 |
|---|---|
| Airport | Antonio Nariño Airport (SKPS) |
Arrival
| Time | N/A |
|---|---|
| Airport | Maiquetía Simón Bolívar International Airport (SVMI) |
| Time | Latitude | Longitude | Altitude | Speed | Heading |
|---|---|---|---|---|---|
| 2026-04-24 06:33 | 1.39576 | -77.28982 | 5914 ft | 0 kts | 105° |
| 2026-04-24 06:44 | 1.39579 | -77.28995 | 5908 ft | 4 kts | 114° |
| 2026-04-24 06:44 | 1.39594 | -77.29016 | 5908 ft | 4 kts | 152° |
| 2026-04-24 06:44 | 1.39616 | -77.29020 | 5907 ft | 2 kts | 195° |
| 2026-04-24 06:45 | 1.39617 | -77.29020 | 5907 ft | 0 kts | 195° |
| 2026-04-24 06:48 | 1.39616 | -77.29020 | 5907 ft | 1 kts | 195° |
| 2026-04-24 06:49 | 1.39567 | -77.29033 | 5908 ft | 14 kts | 195° |
| 2026-04-24 06:49 | 1.39512 | -77.29069 | 5909 ft | 7 kts | 266° |
| 2026-04-24 06:49 | 1.39523 | -77.29108 | 5912 ft | 6 kts | 287° |
| 2026-04-24 06:49 | 1.39504 | -77.29138 | 5914 ft | 7 kts | 196° |
| 2026-04-24 06:50 | 1.39409 | -77.29162 | 5920 ft | 21 kts | 193° |
| 2026-04-24 06:50 | 1.39221 | -77.29209 | 5929 ft | 33 kts | 195° |
| 2026-04-24 06:50 | 1.38998 | -77.29270 | 5940 ft | 34 kts | 194° |
| 2026-04-24 06:50 | 1.38763 | -77.29331 | 5947 ft | 35 kts | 193° |
| 2026-04-24 06:51 | 1.38670 | -77.29359 | 5963 ft | 6 kts | 275° |
| 2026-04-24 06:51 | 1.38693 | -77.29352 | 5957 ft | 0 kts | 17° |
| 2026-04-24 06:51 | 1.38694 | -77.29352 | 5957 ft | 0 kts | 17° |
| 2026-04-24 06:52 | 1.38881 | -77.29300 | 5943 ft | 68 kts | 15° |
| 2026-04-24 06:52 | 1.39591 | -77.29115 | 5909 ft | 141 kts | 14° |
| 2026-04-24 06:53 | 1.40681 | -77.28821 | 6225 ft | 165 kts | 15° |
| 2026-04-24 06:53 | 1.41767 | -77.28517 | 7067 ft | 161 kts | 15° |
| 2026-04-24 06:53 | 1.42862 | -77.28227 | 7510 ft | 167 kts | 14° |
| 2026-04-24 06:53 | 1.44044 | -77.27918 | 7639 ft | 184 kts | 14° |
| 2026-04-24 06:54 | 1.45358 | -77.27610 | 7761 ft | 203 kts | 7° |
| 2026-04-24 06:54 | 1.46813 | -77.27604 | 7982 ft | 218 kts | 352° |
| 2026-04-24 06:54 | 1.48369 | -77.27954 | 8096 ft | 242 kts | 346° |
| 2026-04-24 06:54 | 1.50090 | -77.28377 | 8344 ft | 266 kts | 346° |
| 2026-04-24 06:55 | 1.51965 | -77.28827 | 8725 ft | 285 kts | 346° |
| 2026-04-24 06:55 | 1.53914 | -77.29291 | 9379 ft | 291 kts | 346° |
| 2026-04-24 06:55 | 1.55894 | -77.29766 | 10102 ft | 295 kts | 346° |
| 2026-04-24 06:55 | 1.57926 | -77.30255 | 10475 ft | 310 kts | 346° |
| 2026-04-24 06:56 | 1.60102 | -77.30777 | 10611 ft | 333 kts | 346° |
| 2026-04-24 06:56 | 1.62429 | -77.31337 | 10720 ft | 354 kts | 346° |
| 2026-04-24 06:56 | 1.64876 | -77.31928 | 11015 ft | 367 kts | 345° |
| 2026-04-24 06:56 | 1.66099 | -77.32224 | 11252 ft | 370 kts | 345° |
| 2026-04-24 06:57 | 1.68503 | -77.32806 | 11763 ft | 373 kts | 345° |